sensor_id;sensor_type;location;lat;lon;timestamp;P1;durP1;ratioP1;P2;durP2;ratioP2
2944;SDS011;1482;51.398;7.128;2024-02-26T00:01:00;2.27;;;1.93;;
2944;SDS011;1482;51.398;7.128;2024-02-26T00:03:25;3.40;;;1.83;;
2944;SDS011;1482;51.398;7.128;2024-02-26T00:05:51;2.53;;;1.80;;
2944;SDS011;1482;51.398;7.128;2024-02-26T00:08:17;1.90;;;1.67;;
2944;SDS011;1482;51.398;7.128;2024-02-26T00:10:42;2.87;;;2.27;;
2944;SDS011;1482;51.398;7.128;2024-02-26T00:13:08;2.50;;;1.93;;
2944;SDS011;1482;51.398;7.128;2024-02-26T00:15:33;3.57;;;2.27;;
2944;SDS011;1482;51.398;7.128;2024-02-26T00:18:00;2.63;;;2.40;;
2944;SDS011;1482;51.398;7.128;2024-02-26T00:20:26;3.37;;;2.20;;
2944;SDS011;1482;51.398;7.128;2024-02-26T00:22:51;3.57;;;2.40;;
2944;SDS011;1482;51.398;7.128;2024-02-26T00:25:17;2.20;;;1.80;;
2944;SDS011;1482;51.398;7.128;2024-02-26T00:27:42;4.30;;;2.17;;
2944;SDS011;1482;51.398;7.128;2024-02-26T00:30:09;2.33;;;1.77;;
2944;SDS011;1482;51.398;7.128;2024-02-26T00:32:35;4.43;;;2.13;;
2944;SDS011;1482;51.398;7.128;2024-02-26T00:35:00;4.53;;;2.23;;
2944;SDS011;1482;51.398;7.128;2024-02-26T00:37:26;2.20;;;1.57;;
2944;SDS011;1482;51.398;7.128;2024-02-26T00:39:52;1.70;;;1.60;;
2944;SDS011;1482;51.398;7.128;2024-02-26T00:42:19;2.07;;;1.83;;
2944;SDS011;1482;51.398;7.128;2024-02-26T00:44:44;2.50;;;1.97;;
2944;SDS011;1482;51.398;7.128;2024-02-26T00:47:10;2.30;;;2.10;;
2944;SDS011;1482;51.398;7.128;2024-02-26T00:49:36;2.37;;;2.00;;
2944;SDS011;1482;51.398;7.128;2024-02-26T00:52:02;2.20;;;1.67;;
2944;SDS011;1482;51.398;7.128;2024-02-26T00:54:27;1.93;;;1.80;;
2944;SDS011;1482;51.398;7.128;2024-02-26T00:56:53;4.37;;;2.63;;
2944;SDS011;1482;51.398;7.128;2024-02-26T00:59:18;6.90;;;2.27;;
2944;SDS011;1482;51.398;7.128;2024-02-26T01:01:44;5.93;;;1.90;;
2944;SDS011;1482;51.398;7.128;2024-02-26T01:04:10;2.50;;;2.00;;
2944;SDS011;1482;51.398;7.128;2024-02-26T01:06:36;3.20;;;1.70;;
2944;SDS011;1482;51.398;7.128;2024-02-26T01:09:02;5.07;;;2.33;;
2944;SDS011;1482;51.398;7.128;2024-02-26T01:11:27;1.50;;;1.40;;
2944;SDS011;1482;51.398;7.128;2024-02-26T01:13:53;2.30;;;1.53;;
2944;SDS011;1482;51.398;7.128;2024-02-26T01:16:21;1.63;;;1.53;;
2944;SDS011;1482;51.398;7.128;2024-02-26T01:18:50;4.90;;;1.93;;
2944;SDS011;1482;51.398;7.128;2024-02-26T01:21:15;1.60;;;1.40;;
2944;SDS011;1482;51.398;7.128;2024-02-26T01:23:41;3.37;;;2.00;;
2944;SDS011;1482;51.398;7.128;2024-02-26T01:26:07;2.30;;;1.50;;
2944;SDS011;1482;51.398;7.128;2024-02-26T01:28:33;2.60;;;2.40;;
2944;SDS011;1482;51.398;7.128;2024-02-26T01:30:58;2.37;;;1.33;;
2944;SDS011;1482;51.398;7.128;2024-02-26T01:33:25;3.10;;;2.13;;
2944;SDS011;1482;51.398;7.128;2024-02-26T01:35:51;2.37;;;1.70;;
2944;SDS011;1482;51.398;7.128;2024-02-26T01:38:18;1.50;;;1.40;;
2944;SDS011;1482;51.398;7.128;2024-02-26T01:40:43;3.83;;;1.80;;
2944;SDS011;1482;51.398;7.128;2024-02-26T01:43:09;2.20;;;1.40;;
2944;SDS011;1482;51.398;7.128;2024-02-26T01:45:34;4.00;;;2.13;;
2944;SDS011;1482;51.398;7.128;2024-02-26T01:48:00;4.20;;;2.17;;
2944;SDS011;1482;51.398;7.128;2024-02-26T01:50:25;2.93;;;1.77;;
2944;SDS011;1482;51.398;7.128;2024-02-26T01:52:52;3.53;;;1.70;;
2944;SDS011;1482;51.398;7.128;2024-02-26T01:55:19;2.50;;;1.93;;
2944;SDS011;1482;51.398;7.128;2024-02-26T01:57:47;3.70;;;1.70;;
2944;SDS011;1482;51.398;7.128;2024-02-26T02:00:15;2.20;;;2.00;;
2944;SDS011;1482;51.398;7.128;2024-02-26T02:02:41;2.23;;;1.67;;
2944;SDS011;1482;51.398;7.128;2024-02-26T02:05:09;3.00;;;2.20;;
2944;SDS011;1482;51.398;7.128;2024-02-26T02:07:36;2.40;;;2.13;;
2944;SDS011;1482;51.398;7.128;2024-02-26T02:10:02;3.43;;;2.57;;
2944;SDS011;1482;51.398;7.128;2024-02-26T02:12:28;2.53;;;1.50;;
2944;SDS011;1482;51.398;7.128;2024-02-26T02:14:54;2.87;;;1.90;;
2944;SDS011;1482;51.398;7.128;2024-02-26T02:17:20;2.73;;;2.53;;
2944;SDS011;1482;51.398;7.128;2024-02-26T02:19:45;3.10;;;1.77;;
2944;SDS011;1482;51.398;7.128;2024-02-26T02:22:11;2.20;;;2.00;;
2944;SDS011;1482;51.398;7.128;2024-02-26T02:24:36;3.77;;;2.30;;
2944;SDS011;1482;51.398;7.128;2024-02-26T02:27:02;4.63;;;2.10;;
2944;SDS011;1482;51.398;7.128;2024-02-26T02:29:28;3.53;;;2.73;;
2944;SDS011;1482;51.398;7.128;2024-02-26T02:31:54;3.00;;;2.37;;
2944;SDS011;1482;51.398;7.128;2024-02-26T02:34:21;2.27;;;2.07;;
2944;SDS011;1482;51.398;7.128;2024-02-26T02:36:53;2.30;;;2.07;;
2944;SDS011;1482;51.398;7.128;2024-02-26T02:39:19;2.70;;;1.90;;
2944;SDS011;1482;51.398;7.128;2024-02-26T02:41:45;2.00;;;1.57;;
2944;SDS011;1482;51.398;7.128;2024-02-26T02:44:11;2.07;;;1.80;;
2944;SDS011;1482;51.398;7.128;2024-02-26T02:46:36;1.90;;;1.57;;
2944;SDS011;1482;51.398;7.128;2024-02-26T02:49:02;1.90;;;1.80;;
2944;SDS011;1482;51.398;7.128;2024-02-26T02:51:28;2.73;;;2.03;;
2944;SDS011;1482;51.398;7.128;2024-02-26T02:53:53;2.80;;;1.57;;
2944;SDS011;1482;51.398;7.128;2024-02-26T02:56:19;2.50;;;2.03;;
2944;SDS011;1482;51.398;7.128;2024-02-26T02:58:44;2.30;;;2.10;;
2944;SDS011;1482;51.398;7.128;2024-02-26T03:01:10;3.50;;;2.40;;
2944;SDS011;1482;51.398;7.128;2024-02-26T03:03:35;3.13;;;2.10;;
2944;SDS011;1482;51.398;7.128;2024-02-26T03:06:02;3.10;;;1.93;;
2944;SDS011;1482;51.398;7.128;2024-02-26T03:08:28;2.13;;;1.80;;
2944;SDS011;1482;51.398;7.128;2024-02-26T03:10:54;2.50;;;2.30;;
2944;SDS011;1482;51.398;7.128;2024-02-26T03:13:19;2.83;;;1.73;;
2944;SDS011;1482;51.398;7.128;2024-02-26T03:15:45;3.03;;;2.50;;
2944;SDS011;1482;51.398;7.128;2024-02-26T03:18:11;2.10;;;1.90;;
2944;SDS011;1482;51.398;7.128;2024-02-26T03:20:36;2.07;;;1.90;;
2944;SDS011;1482;51.398;7.128;2024-02-26T03:23:02;1.97;;;1.67;;
2944;SDS011;1482;51.398;7.128;2024-02-26T03:25:28;3.30;;;2.37;;
2944;SDS011;1482;51.398;7.128;2024-02-26T03:27:53;2.03;;;1.87;;
2944;SDS011;1482;51.398;7.128;2024-02-26T03:30:19;2.40;;;2.20;;
2944;SDS011;1482;51.398;7.128;2024-02-26T03:32:44;2.37;;;2.17;;
2944;SDS011;1482;51.398;7.128;2024-02-26T03:35:10;2.03;;;1.90;;
2944;SDS011;1482;51.398;7.128;2024-02-26T03:37:35;2.17;;;1.97;;
2944;SDS011;1482;51.398;7.128;2024-02-26T03:40:01;3.23;;;2.60;;
2944;SDS011;1482;51.398;7.128;2024-02-26T03:42:28;3.03;;;2.40;;
2944;SDS011;1482;51.398;7.128;2024-02-26T03:44:53;2.20;;;2.00;;
2944;SDS011;1482;51.398;7.128;2024-02-26T03:47:19;2.50;;;2.33;;
2944;SDS011;1482;51.398;7.128;2024-02-26T03:49:44;2.10;;;2.00;;
2944;SDS011;1482;51.398;7.128;2024-02-26T03:52:10;2.30;;;1.70;;
2944;SDS011;1482;51.398;7.128;2024-02-26T03:54:35;2.80;;;2.40;;
2944;SDS011;1482;51.398;7.128;2024-02-26T03:57:01;2.30;;;2.10;;
2944;SDS011;1482;51.398;7.128;2024-02-26T03:59:26;2.27;;;2.17;;
2944;SDS011;1482;51.398;7.128;2024-02-26T04:01:52;2.60;;;2.40;;
2944;SDS011;1482;51.398;7.128;2024-02-26T04:04:17;3.13;;;2.33;;
2944;SDS011;1482;51.398;7.128;2024-02-26T04:06:46;3.43;;;2.40;;
2944;SDS011;1482;51.398;7.128;2024-02-26T04:09:15;3.27;;;2.63;;
2944;SDS011;1482;51.398;7.128;2024-02-26T04:11:40;4.53;;;2.27;;
2944;SDS011;1482;51.398;7.128;2024-02-26T04:14:08;3.63;;;2.63;;
2944;SDS011;1482;51.398;7.128;2024-02-26T04:16:34;2.23;;;1.93;;
2944;SDS011;1482;51.398;7.128;2024-02-26T04:19:00;2.90;;;2.60;;
2944;SDS011;1482;51.398;7.128;2024-02-26T04:21:26;2.60;;;2.20;;
2944;SDS011;1482;51.398;7.128;2024-02-26T04:23:51;2.73;;;2.53;;
2944;SDS011;1482;51.398;7.128;2024-02-26T04:26:20;4.70;;;2.70;;
2944;SDS011;1482;51.398;7.128;2024-02-26T04:28:46;3.23;;;2.73;;
2944;SDS011;1482;51.398;7.128;2024-02-26T04:31:11;2.73;;;2.53;;
2944;SDS011;1482;51.398;7.128;2024-02-26T04:33:37;2.63;;;2.43;;
2944;SDS011;1482;51.398;7.128;2024-02-26T04:36:02;4.40;;;2.83;;
2944;SDS011;1482;51.398;7.128;2024-02-26T04:38:28;2.57;;;2.30;;
2944;SDS011;1482;51.398;7.128;2024-02-26T04:40:54;2.50;;;2.27;;
2944;SDS011;1482;51.398;7.128;2024-02-26T04:43:19;2.50;;;2.30;;
2944;SDS011;1482;51.398;7.128;2024-02-26T04:45:45;2.90;;;2.70;;
2944;SDS011;1482;51.398;7.128;2024-02-26T04:48:10;3.20;;;2.90;;
2944;SDS011;1482;51.398;7.128;2024-02-26T04:50:36;4.83;;;2.87;;
2944;SDS011;1482;51.398;7.128;2024-02-26T04:53:02;7.13;;;3.00;;
2944;SDS011;1482;51.398;7.128;2024-02-26T04:55:27;2.93;;;2.70;;
2944;SDS011;1482;51.398;7.128;2024-02-26T04:57:53;4.83;;;3.03;;
2944;SDS011;1482;51.398;7.128;2024-02-26T05:00:18;2.63;;;2.43;;
2944;SDS011;1482;51.398;7.128;2024-02-26T05:02:44;2.53;;;2.37;;
2944;SDS011;1482;51.398;7.128;2024-02-26T05:05:11;6.00;;;3.20;;
2944;SDS011;1482;51.398;7.128;2024-02-26T05:07:41;3.50;;;3.27;;
2944;SDS011;1482;51.398;7.128;2024-02-26T05:10:07;5.93;;;3.30;;
2944;SDS011;1482;51.398;7.128;2024-02-26T05:12:33;3.53;;;3.23;;
2944;SDS011;1482;51.398;7.128;2024-02-26T05:15:00;7.83;;;3.00;;
2944;SDS011;1482;51.398;7.128;2024-02-26T05:17:26;3.50;;;3.20;;
2944;SDS011;1482;51.398;7.128;2024-02-26T05:19:52;3.60;;;3.30;;
2944;SDS011;1482;51.398;7.128;2024-02-26T05:22:17;2.90;;;2.70;;
2944;SDS011;1482;51.398;7.128;2024-02-26T05:24:43;4.93;;;3.83;;
2944;SDS011;1482;51.398;7.128;2024-02-26T05:27:08;5.00;;;3.00;;
2944;SDS011;1482;51.398;7.128;2024-02-26T05:29:34;3.13;;;2.90;;
2944;SDS011;1482;51.398;7.128;2024-02-26T05:32:00;4.27;;;3.40;;
2944;SDS011;1482;51.398;7.128;2024-02-26T05:34:25;3.20;;;3.00;;
2944;SDS011;1482;51.398;7.128;2024-02-26T05:36:51;9.50;;;4.13;;
2944;SDS011;1482;51.398;7.128;2024-02-26T05:39:16;4.40;;;3.33;;
2944;SDS011;1482;51.398;7.128;2024-02-26T05:41:42;3.07;;;2.63;;
2944;SDS011;1482;51.398;7.128;2024-02-26T05:44:08;4.50;;;2.70;;
2944;SDS011;1482;51.398;7.128;2024-02-26T05:46:35;2.93;;;2.70;;
2944;SDS011;1482;51.398;7.128;2024-02-26T05:49:00;3.23;;;3.00;;
2944;SDS011;1482;51.398;7.128;2024-02-26T05:51:26;3.60;;;3.07;;
2944;SDS011;1482;51.398;7.128;2024-02-26T05:53:51;3.40;;;3.10;;
2944;SDS011;1482;51.398;7.128;2024-02-26T05:56:21;3.03;;;2.70;;
2944;SDS011;1482;51.398;7.128;2024-02-26T05:58:47;3.43;;;2.87;;
2944;SDS011;1482;51.398;7.128;2024-02-26T06:01:12;4.17;;;3.30;;
2944;SDS011;1482;51.398;7.128;2024-02-26T06:03:42;3.30;;;3.00;;
2944;SDS011;1482;51.398;7.128;2024-02-26T06:06:08;4.07;;;3.67;;
2944;SDS011;1482;51.398;7.128;2024-02-26T06:08:33;3.30;;;3.00;;
2944;SDS011;1482;51.398;7.128;2024-02-26T06:10:59;4.20;;;3.20;;
2944;SDS011;1482;51.398;7.128;2024-02-26T06:13:24;5.43;;;3.00;;
2944;SDS011;1482;51.398;7.128;2024-02-26T06:15:50;4.03;;;3.57;;
2944;SDS011;1482;51.398;7.128;2024-02-26T06:18:15;4.43;;;3.63;;
2944;SDS011;1482;51.398;7.128;2024-02-26T06:20:41;3.43;;;3.13;;
2944;SDS011;1482;51.398;7.128;2024-02-26T06:23:06;5.77;;;3.07;;
2944;SDS011;1482;51.398;7.128;2024-02-26T06:25:32;3.50;;;3.20;;
2944;SDS011;1482;51.398;7.128;2024-02-26T06:27:57;4.47;;;2.70;;
2944;SDS011;1482;51.398;7.128;2024-02-26T06:30:23;4.70;;;3.60;;
2944;SDS011;1482;51.398;7.128;2024-02-26T06:32:49;4.30;;;3.90;;
2944;SDS011;1482;51.398;7.128;2024-02-26T06:35:14;3.47;;;2.90;;
2944;SDS011;1482;51.398;7.128;2024-02-26T06:37:40;6.37;;;3.60;;
2944;SDS011;1482;51.398;7.128;2024-02-26T06:40:05;3.50;;;3.20;;
2944;SDS011;1482;51.398;7.128;2024-02-26T06:42:32;12.33;;;3.93;;
2944;SDS011;1482;51.398;7.128;2024-02-26T06:44:58;4.20;;;3.83;;
2944;SDS011;1482;51.398;7.128;2024-02-26T06:47:23;2.80;;;2.60;;
2944;SDS011;1482;51.398;7.128;2024-02-26T06:49:49;3.63;;;3.33;;
2944;SDS011;1482;51.398;7.128;2024-02-26T06:52:14;3.40;;;3.10;;
2944;SDS011;1482;51.398;7.128;2024-02-26T06:54:40;4.03;;;3.43;;
2944;SDS011;1482;51.398;7.128;2024-02-26T06:57:06;4.10;;;3.20;;
2944;SDS011;1482;51.398;7.128;2024-02-26T06:59:32;6.67;;;3.90;;
2944;SDS011;1482;51.398;7.128;2024-02-26T07:01:57;4.33;;;3.13;;
2944;SDS011;1482;51.398;7.128;2024-02-26T07:04:23;3.70;;;3.40;;
2944;SDS011;1482;51.398;7.128;2024-02-26T07:06:48;9.20;;;3.50;;
2944;SDS011;1482;51.398;7.128;2024-02-26T07:09:14;4.80;;;3.70;;
2944;SDS011;1482;51.398;7.128;2024-02-26T07:11:39;6.70;;;4.30;;
2944;SDS011;1482;51.398;7.128;2024-02-26T07:14:08;5.10;;;4.10;;
2944;SDS011;1482;51.398;7.128;2024-02-26T07:16:34;5.40;;;4.90;;
2944;SDS011;1482;51.398;7.128;2024-02-26T07:19:00;5.13;;;4.60;;
2944;SDS011;1482;51.398;7.128;2024-02-26T07:21:25;4.00;;;3.70;;
2944;SDS011;1482;51.398;7.128;2024-02-26T07:23:51;3.70;;;3.27;;
2944;SDS011;1482;51.398;7.128;2024-02-26T07:26:17;4.33;;;3.93;;
2944;SDS011;1482;51.398;7.128;2024-02-26T07:28:44;8.53;;;3.73;;
2944;SDS011;1482;51.398;7.128;2024-02-26T07:31:09;7.70;;;3.87;;
2944;SDS011;1482;51.398;7.128;2024-02-26T07:33:35;5.33;;;3.73;;
2944;SDS011;1482;51.398;7.128;2024-02-26T07:36:00;4.13;;;3.33;;
2944;SDS011;1482;51.398;7.128;2024-02-26T07:38:27;7.70;;;4.23;;
2944;SDS011;1482;51.398;7.128;2024-02-26T07:40:52;5.30;;;4.80;;
2944;SDS011;1482;51.398;7.128;2024-02-26T07:43:18;5.00;;;4.57;;
2944;SDS011;1482;51.398;7.128;2024-02-26T07:45:43;8.97;;;3.97;;
2944;SDS011;1482;51.398;7.128;2024-02-26T07:48:09;6.00;;;5.03;;
2944;SDS011;1482;51.398;7.128;2024-02-26T07:50:34;5.00;;;4.50;;
2944;SDS011;1482;51.398;7.128;2024-02-26T07:53:00;7.53;;;4.57;;
2944;SDS011;1482;51.398;7.128;2024-02-26T07:55:25;12.57;;;5.80;;
2944;SDS011;1482;51.398;7.128;2024-02-26T07:57:51;9.07;;;4.80;;
2944;SDS011;1482;51.398;7.128;2024-02-26T08:00:16;5.73;;;4.13;;
2944;SDS011;1482;51.398;7.128;2024-02-26T08:02:43;6.97;;;5.03;;
2944;SDS011;1482;51.398;7.128;2024-02-26T08:05:09;8.50;;;6.57;;
2944;SDS011;1482;51.398;7.128;2024-02-26T08:07:34;6.60;;;4.87;;
2944;SDS011;1482;51.398;7.128;2024-02-26T08:10:00;6.80;;;4.93;;
2944;SDS011;1482;51.398;7.128;2024-02-26T08:12:26;6.00;;;4.60;;
2944;SDS011;1482;51.398;7.128;2024-02-26T08:14:51;5.83;;;4.80;;
2944;SDS011;1482;51.398;7.128;2024-02-26T08:17:17;5.60;;;5.10;;
2944;SDS011;1482;51.398;7.128;2024-02-26T08:19:42;4.53;;;4.13;;
2944;SDS011;1482;51.398;7.128;2024-02-26T08:22:08;4.80;;;4.20;;
2944;SDS011;1482;51.398;7.128;2024-02-26T08:24:35;5.80;;;5.20;;
2944;SDS011;1482;51.398;7.128;2024-02-26T08:27:00;4.87;;;4.43;;
2944;SDS011;1482;51.398;7.128;2024-02-26T08:29:26;4.10;;;3.80;;
2944;SDS011;1482;51.398;7.128;2024-02-26T08:31:51;6.73;;;4.60;;
2944;SDS011;1482;51.398;7.128;2024-02-26T08:34:17;6.03;;;4.40;;
2944;SDS011;1482;51.398;7.128;2024-02-26T08:36:42;6.03;;;5.43;;
2944;SDS011;1482;51.398;7.128;2024-02-26T08:39:09;6.40;;;5.33;;
2944;SDS011;1482;51.398;7.128;2024-02-26T08:41:35;4.63;;;4.23;;
2944;SDS011;1482;51.398;7.128;2024-02-26T08:44:01;4.60;;;4.20;;
2944;SDS011;1482;51.398;7.128;2024-02-26T08:46:26;8.33;;;3.83;;
2944;SDS011;1482;51.398;7.128;2024-02-26T08:48:52;5.57;;;3.83;;
2944;SDS011;1482;51.398;7.128;2024-02-26T08:51:17;7.50;;;4.03;;
2944;SDS011;1482;51.398;7.128;2024-02-26T08:53:43;5.43;;;4.70;;
2944;SDS011;1482;51.398;7.128;2024-02-26T08:56:08;7.20;;;4.27;;
2944;SDS011;1482;51.398;7.128;2024-02-26T08:58:34;5.37;;;4.10;;
2944;SDS011;1482;51.398;7.128;2024-02-26T09:00:59;5.00;;;3.80;;
2944;SDS011;1482;51.398;7.128;2024-02-26T09:03:25;4.67;;;4.17;;
2944;SDS011;1482;51.398;7.128;2024-02-26T09:05:51;4.70;;;3.80;;
2944;SDS011;1482;51.398;7.128;2024-02-26T09:08:16;4.30;;;3.90;;
2944;SDS011;1482;51.398;7.128;2024-02-26T09:10:42;5.40;;;4.40;;
2944;SDS011;1482;51.398;7.128;2024-02-26T09:13:07;5.20;;;4.70;;
2944;SDS011;1482;51.398;7.128;2024-02-26T09:15:33;4.60;;;4.20;;
2944;SDS011;1482;51.398;7.128;2024-02-26T09:17:59;8.97;;;4.70;;
2944;SDS011;1482;51.398;7.128;2024-02-26T09:20:24;8.17;;;4.70;;
2944;SDS011;1482;51.398;7.128;2024-02-26T09:22:50;5.47;;;4.23;;
2944;SDS011;1482;51.398;7.128;2024-02-26T09:25:16;6.07;;;5.03;;
2944;SDS011;1482;51.398;7.128;2024-02-26T09:27:42;6.00;;;4.87;;
2944;SDS011;1482;51.398;7.128;2024-02-26T09:30:09;7.33;;;5.23;;
2944;SDS011;1482;51.398;7.128;2024-02-26T09:32:35;6.00;;;4.77;;
2944;SDS011;1482;51.398;7.128;2024-02-26T09:35:01;5.20;;;4.70;;
2944;SDS011;1482;51.398;7.128;2024-02-26T09:37:27;5.20;;;4.80;;
2944;SDS011;1482;51.398;7.128;2024-02-26T09:39:52;3.80;;;3.50;;
2944;SDS011;1482;51.398;7.128;2024-02-26T09:42:18;13.03;;;4.43;;
2944;SDS011;1482;51.398;7.128;2024-02-26T09:44:44;5.17;;;4.33;;
2944;SDS011;1482;51.398;7.128;2024-02-26T09:47:11;5.43;;;4.37;;
2944;SDS011;1482;51.398;7.128;2024-02-26T09:49:40;5.80;;;4.80;;
2944;SDS011;1482;51.398;7.128;2024-02-26T09:52:07;9.00;;;4.60;;
2944;SDS011;1482;51.398;7.128;2024-02-26T09:54:34;5.67;;;4.37;;
2944;SDS011;1482;51.398;7.128;2024-02-26T09:57:02;11.20;;;5.90;;
2944;SDS011;1482;51.398;7.128;2024-02-26T09:59:34;4.77;;;4.30;;
2944;SDS011;1482;51.398;7.128;2024-02-26T10:02:04;5.40;;;4.80;;
2944;SDS011;1482;51.398;7.128;2024-02-26T10:04:29;7.80;;;5.13;;
2944;SDS011;1482;51.398;7.128;2024-02-26T10:06:56;8.07;;;4.80;;
2944;SDS011;1482;51.398;7.128;2024-02-26T10:09:24;5.47;;;4.13;;
2944;SDS011;1482;51.398;7.128;2024-02-26T10:11:50;5.60;;;4.63;;
2944;SDS011;1482;51.398;7.128;2024-02-26T10:14:16;4.93;;;4.53;;
2944;SDS011;1482;51.398;7.128;2024-02-26T10:16:42;6.40;;;5.80;;
2944;SDS011;1482;51.398;7.128;2024-02-26T10:19:08;9.53;;;5.73;;
2944;SDS011;1482;51.398;7.128;2024-02-26T10:21:34;7.27;;;6.20;;
2944;SDS011;1482;51.398;7.128;2024-02-26T10:24:01;17.07;;;6.33;;
2944;SDS011;1482;51.398;7.128;2024-02-26T10:26:26;5.30;;;4.80;;
2944;SDS011;1482;51.398;7.128;2024-02-26T10:28:52;7.00;;;6.00;;
2944;SDS011;1482;51.398;7.128;2024-02-26T10:31:17;7.57;;;5.60;;
2944;SDS011;1482;51.398;7.128;2024-02-26T10:33:44;7.00;;;6.30;;
2944;SDS011;1482;51.398;7.128;2024-02-26T10:36:10;7.67;;;5.30;;
2944;SDS011;1482;51.398;7.128;2024-02-26T10:38:36;8.03;;;5.90;;
2944;SDS011;1482;51.398;7.128;2024-02-26T10:41:03;4.97;;;4.30;;
2944;SDS011;1482;51.398;7.128;2024-02-26T10:43:29;9.60;;;8.00;;
2944;SDS011;1482;51.398;7.128;2024-02-26T10:45:55;7.10;;;6.40;;
2944;SDS011;1482;51.398;7.128;2024-02-26T10:48:21;8.83;;;6.63;;
2944;SDS011;1482;51.398;7.128;2024-02-26T10:50:47;10.43;;;7.47;;
2944;SDS011;1482;51.398;7.128;2024-02-26T10:53:16;7.90;;;6.30;;
2944;SDS011;1482;51.398;7.128;2024-02-26T10:55:45;8.90;;;6.47;;
2944;SDS011;1482;51.398;7.128;2024-02-26T10:58:32;10.00;;;7.03;;
2944;SDS011;1482;51.398;7.128;2024-02-26T11:00:58;8.43;;;6.40;;
2944;SDS011;1482;51.398;7.128;2024-02-26T11:03:25;6.73;;;5.90;;
2944;SDS011;1482;51.398;7.128;2024-02-26T11:05:51;6.90;;;5.63;;
2944;SDS011;1482;51.398;7.128;2024-02-26T11:08:18;10.70;;;6.80;;
2944;SDS011;1482;51.398;7.128;2024-02-26T11:10:46;7.80;;;6.40;;
2944;SDS011;1482;51.398;7.128;2024-02-26T11:13:14;8.73;;;6.27;;
2944;SDS011;1482;51.398;7.128;2024-02-26T11:15:42;6.83;;;6.20;;
2944;SDS011;1482;51.398;7.128;2024-02-26T11:18:08;10.17;;;7.40;;
2944;SDS011;1482;51.398;7.128;2024-02-26T11:20:34;8.80;;;6.93;;
2944;SDS011;1482;51.398;7.128;2024-02-26T11:23:05;10.60;;;6.77;;
2944;SDS011;1482;51.398;7.128;2024-02-26T11:25:32;11.70;;;7.23;;
2944;SDS011;1482;51.398;7.128;2024-02-26T11:27:58;9.87;;;7.80;;
2944;SDS011;1482;51.398;7.128;2024-02-26T11:30:29;8.57;;;6.63;;
2944;SDS011;1482;51.398;7.128;2024-02-26T11:32:57;7.43;;;6.53;;
2944;SDS011;1482;51.398;7.128;2024-02-26T11:35:23;8.73;;;7.50;;
2944;SDS011;1482;51.398;7.128;2024-02-26T11:37:55;10.40;;;8.40;;
2944;SDS011;1482;51.398;7.128;2024-02-26T11:40:24;10.30;;;7.70;;
2944;SDS011;1482;51.398;7.128;2024-02-26T11:42:51;8.60;;;7.40;;
2944;SDS011;1482;51.398;7.128;2024-02-26T11:48:13;12.63;;;8.30;;
2944;SDS011;1482;51.398;7.128;2024-02-26T11:50:39;12.33;;;9.17;;
2944;SDS011;1482;51.398;7.128;2024-02-26T11:58:58;12.80;;;7.90;;
2944;SDS011;1482;51.398;7.128;2024-02-26T12:01:38;9.80;;;8.07;;
2944;SDS011;1482;51.398;7.128;2024-02-26T12:04:09;13.10;;;9.80;;
2944;SDS011;1482;51.398;7.128;2024-02-26T12:06:44;11.73;;;8.13;;
2944;SDS011;1482;51.398;7.128;2024-02-26T12:09:11;8.53;;;7.43;;
2944;SDS011;1482;51.398;7.128;2024-02-26T12:11:38;10.27;;;7.67;;
2944;SDS011;1482;51.398;7.128;2024-02-26T12:14:05;9.97;;;7.43;;
2944;SDS011;1482;51.398;7.128;2024-02-26T12:16:36;12.73;;;6.37;;
2944;SDS011;1482;51.398;7.128;2024-02-26T12:19:05;8.37;;;6.37;;
2944;SDS011;1482;51.398;7.128;2024-02-26T12:21:35;8.50;;;6.50;;
2944;SDS011;1482;51.398;7.128;2024-02-26T12:24:11;8.50;;;7.07;;
2944;SDS011;1482;51.398;7.128;2024-02-26T12:26:38;8.53;;;6.20;;
2944;SDS011;1482;51.398;7.128;2024-02-26T12:29:04;9.10;;;7.53;;
2944;SDS011;1482;51.398;7.128;2024-02-26T12:31:30;8.10;;;6.23;;
2944;SDS011;1482;51.398;7.128;2024-02-26T12:33:57;11.50;;;7.40;;
2944;SDS011;1482;51.398;7.128;2024-02-26T12:36:23;7.37;;;6.63;;
2944;SDS011;1482;51.398;7.128;2024-02-26T12:38:50;9.17;;;8.00;;
2944;SDS011;1482;51.398;7.128;2024-02-26T12:41:16;10.17;;;8.90;;
2944;SDS011;1482;51.398;7.128;2024-02-26T12:43:41;9.77;;;7.93;;
2944;SDS011;1482;51.398;7.128;2024-02-26T12:46:07;9.53;;;8.47;;
2944;SDS011;1482;51.398;7.128;2024-02-26T12:48:33;14.80;;;9.33;;
2944;SDS011;1482;51.398;7.128;2024-02-26T12:50:58;12.13;;;7.23;;
2944;SDS011;1482;51.398;7.128;2024-02-26T12:53:25;11.20;;;8.10;;
2944;SDS011;1482;51.398;7.128;2024-02-26T12:55:52;9.77;;;7.60;;
2944;SDS011;1482;51.398;7.128;2024-02-26T12:58:21;11.27;;;9.60;;
2944;SDS011;1482;51.398;7.128;2024-02-26T13:00:50;9.23;;;7.53;;
2944;SDS011;1482;51.398;7.128;2024-02-26T13:03:16;7.77;;;7.03;;
2944;SDS011;1482;51.398;7.128;2024-02-26T13:05:42;12.60;;;7.87;;
2944;SDS011;1482;51.398;7.128;2024-02-26T13:08:08;7.80;;;6.87;;
2944;SDS011;1482;51.398;7.128;2024-02-26T13:10:34;12.40;;;8.20;;
2944;SDS011;1482;51.398;7.128;2024-02-26T13:13:01;8.07;;;7.27;;
2944;SDS011;1482;51.398;7.128;2024-02-26T13:15:27;10.30;;;7.87;;
2944;SDS011;1482;51.398;7.128;2024-02-26T13:17:53;10.33;;;8.00;;
2944;SDS011;1482;51.398;7.128;2024-02-26T13:20:28;8.80;;;7.53;;
2944;SDS011;1482;51.398;7.128;2024-02-26T13:23:03;7.73;;;6.93;;
2944;SDS011;1482;51.398;7.128;2024-02-26T13:25:30;8.67;;;5.87;;
2944;SDS011;1482;51.398;7.128;2024-02-26T13:28:06;9.77;;;6.97;;
2944;SDS011;1482;51.398;7.128;2024-02-26T13:30:37;9.60;;;7.27;;
2944;SDS011;1482;51.398;7.128;2024-02-26T13:33:09;8.43;;;6.43;;
2944;SDS011;1482;51.398;7.128;2024-02-26T13:35:36;9.53;;;6.57;;
2944;SDS011;1482;51.398;7.128;2024-02-26T13:38:03;8.97;;;7.33;;
2944;SDS011;1482;51.398;7.128;2024-02-26T13:40:29;11.63;;;8.20;;
2944;SDS011;1482;51.398;7.128;2024-02-26T13:42:55;8.03;;;6.53;;
2944;SDS011;1482;51.398;7.128;2024-02-26T13:45:20;9.20;;;5.70;;
2944;SDS011;1482;51.398;7.128;2024-02-26T13:47:46;9.70;;;7.87;;
2944;SDS011;1482;51.398;7.128;2024-02-26T13:50:11;7.93;;;5.93;;
2944;SDS011;1482;51.398;7.128;2024-02-26T13:52:37;8.77;;;6.13;;
2944;SDS011;1482;51.398;7.128;2024-02-26T13:55:03;7.53;;;6.77;;
2944;SDS011;1482;51.398;7.128;2024-02-26T13:57:28;6.70;;;6.00;;
2944;SDS011;1482;51.398;7.128;2024-02-26T13:59:54;8.70;;;6.83;;
2944;SDS011;1482;51.398;7.128;2024-02-26T14:02:20;9.27;;;5.90;;
2944;SDS011;1482;51.398;7.128;2024-02-26T14:04:46;10.10;;;6.60;;
2944;SDS011;1482;51.398;7.128;2024-02-26T14:07:12;6.10;;;4.80;;
2944;SDS011;1482;51.398;7.128;2024-02-26T14:09:37;6.50;;;5.90;;
2944;SDS011;1482;51.398;7.128;2024-02-26T14:12:03;7.00;;;5.60;;
2944;SDS011;1482;51.398;7.128;2024-02-26T14:14:29;7.53;;;6.00;;
2944;SDS011;1482;51.398;7.128;2024-02-26T14:16:58;6.20;;;5.53;;
2944;SDS011;1482;51.398;7.128;2024-02-26T14:19:23;7.90;;;6.07;;
2944;SDS011;1482;51.398;7.128;2024-02-26T14:21:49;8.87;;;6.07;;
2944;SDS011;1482;51.398;7.128;2024-02-26T14:24:14;7.87;;;6.20;;
2944;SDS011;1482;51.398;7.128;2024-02-26T14:26:40;6.80;;;6.07;;
2944;SDS011;1482;51.398;7.128;2024-02-26T14:29:07;6.13;;;5.50;;
2944;SDS011;1482;51.398;7.128;2024-02-26T14:31:32;6.60;;;5.90;;
2944;SDS011;1482;51.398;7.128;2024-02-26T14:33:58;7.50;;;5.77;;
2944;SDS011;1482;51.398;7.128;2024-02-26T14:36:24;7.80;;;6.17;;
2944;SDS011;1482;51.398;7.128;2024-02-26T14:38:50;6.30;;;5.47;;
2944;SDS011;1482;51.398;7.128;2024-02-26T14:41:16;8.57;;;6.10;;
2944;SDS011;1482;51.398;7.128;2024-02-26T14:43:41;9.50;;;6.27;;
2944;SDS011;1482;51.398;7.128;2024-02-26T14:46:07;8.00;;;6.40;;
2944;SDS011;1482;51.398;7.128;2024-02-26T14:48:33;7.17;;;6.07;;
2944;SDS011;1482;51.398;7.128;2024-02-26T14:50:59;7.50;;;5.63;;
2944;SDS011;1482;51.398;7.128;2024-02-26T14:53:25;7.70;;;6.83;;
2944;SDS011;1482;51.398;7.128;2024-02-26T14:55:50;12.40;;;5.53;;
2944;SDS011;1482;51.398;7.128;2024-02-26T14:58:16;8.27;;;7.03;;
2944;SDS011;1482;51.398;7.128;2024-02-26T15:00:42;9.73;;;6.90;;
2944;SDS011;1482;51.398;7.128;2024-02-26T15:03:07;12.00;;;6.00;;
2944;SDS011;1482;51.398;7.128;2024-02-26T15:05:33;9.93;;;6.27;;
2944;SDS011;1482;51.398;7.128;2024-02-26T15:07:59;6.90;;;6.10;;
2944;SDS011;1482;51.398;7.128;2024-02-26T15:10:25;11.57;;;6.03;;
2944;SDS011;1482;51.398;7.128;2024-02-26T15:12:51;9.00;;;5.83;;
2944;SDS011;1482;51.398;7.128;2024-02-26T15:15:20;8.23;;;7.00;;
2944;SDS011;1482;51.398;7.128;2024-02-26T15:17:45;10.07;;;7.30;;